METAR Data
IDs: Format: Raw Decoded Include TAF

Data at: 0133 UTC 06 Dec 2019

KJZI 060115Z AUTO 00000KT 10SM CLR 06/05 A3020 RMK AO2
KJZI 060055Z AUTO 00000KT 10SM CLR 07/05 A3019 RMK AO2